Time;durP1;ratioP1;P1;durP2;ratioP2;P2;SDS_P1;SDS_P2;PMS_P1;PMS_P2;Temp;Humidity;BMP_temperature;BMP_pressure;BME280_temperature;BME280_humidity;BME280_pressure;Samples;Min_cycle;Max_cycle;Signal;HPM_P1;HPM_P2
2021/07/18 00:04:02;;;;;;;13.85;12.10;;;;;;;;;;6086695;29;20056;-66
2021/07/18 00:07:26;;;;;;;14.63;12.10;;;;;;;;;;6082855;29;20113;-64
2021/07/18 00:10:33;;;;;;;12.95;10.80;;;;;;;;;;6069904;29;20044;-65
2021/07/18 00:13:37;;;;;;;13.15;10.40;;;;;;;;;;6090148;29;20052;-65
2021/07/18 00:16:40;;;;;;;11.23;10.05;;;;;;;;;;6076712;29;20052;-65
2021/07/18 00:19:50;;;;;;;11.75;10.30;;;;;;;;;;6089424;29;20056;-69
2021/07/18 00:22:53;;;;;;;11.48;9.98;;;;;;;;;;6080425;29;20139;-65
2021/07/18 00:26:09;;;;;;;14.40;10.88;;;;;;;;;;6082857;29;20051;-66
2021/07/18 00:29:13;;;;;;;13.63;10.63;;;;;;;;;;6087368;29;20040;-64
2021/07/18 00:32:16;;;;;;;12.50;9.80;;;;;;;;;;6078737;29;20044;-68
2021/07/18 00:35:22;;;;;;;11.63;9.40;;;;;;;;;;6072841;29;20054;-67
2021/07/18 00:38:35;;;;;;;14.27;9.75;;;;;;;;;;6066161;29;20064;-65
2021/07/18 00:42:34;;;;;;;14.95;10.15;;;;;;;;;;6076997;29;20055;-64
2021/07/18 00:45:39;;;;;;;11.43;9.00;;;;;;;;;;6083120;29;20055;-64
2021/07/18 00:48:44;;;;;;;12.50;8.68;;;;;;;;;;6084083;29;20060;-64
2021/07/18 00:51:49;;;;;;;13.05;8.38;;;;;;;;;;6082402;29;20067;-64
2021/07/18 00:54:56;;;;;;;11.57;9.77;;;;;;;;;;6062366;29;20063;-65
2021/07/18 00:58:05;;;;;;;12.55;10.02;;;;;;;;;;6082389;29;20521;-64
2021/07/18 01:01:17;;;;;;;11.80;10.10;;;;;;;;;;6070413;29;20056;-65
2021/07/18 01:04:19;;;;;;;12.95;9.45;;;;;;;;;;6072469;29;20064;-65
2021/07/18 01:07:22;;;;;;;12.00;9.77;;;;;;;;;;6056025;29;20093;-69
2021/07/18 01:10:25;;;;;;;9.50;7.87;;;;;;;;;;6083154;29;20124;-66
2021/07/18 01:13:30;;;;;;;13.57;10.30;;;;;;;;;;6089182;29;20045;-65
2021/07/18 01:16:46;;;;;;;;;;;;;;;;;;;;;
2021/07/18 01:19:48;;;;;;;13.13;10.25;;;;;;;;;;6085921;29;20161;-64
2021/07/18 01:22:52;;;;;;;13.50;10.18;;;;;;;;;;6080153;29;20056;-65
2021/07/18 01:25:54;;;;;;;11.90;10.48;;;;;;;;;;6084828;29;20052;-66
2021/07/18 01:28:56;;;;;;;16.17;9.85;;;;;;;;;;6089679;29;20057;-65
2021/07/18 01:31:59;;;;;;;14.30;10.60;;;;;;;;;;6080457;29;20052;-65
2021/07/18 01:35:01;;;;;;;14.15;10.45;;;;;;;;;;6086989;29;20056;-65
2021/07/18 01:41:33;;;;;;;13.40;9.23;;;;;;;;;;6041523;29;20571;-64
2021/07/18 01:44:36;;;;;;;13.30;9.50;;;;;;;;;;6092638;29;20629;-65
2021/07/18 01:51:50;;;;;;;13.98;9.93;;;;;;;;;;6077372;29;20052;-64
2021/07/18 01:54:59;;;;;;;15.43;10.48;;;;;;;;;;6078820;29;20462;-66
2021/07/18 01:58:26;;;;;;;13.13;9.38;;;;;;;;;;6086683;29;20435;-65
2021/07/18 02:01:47;;;;;;;12.32;9.60;;;;;;;;;;6084830;29;20127;-65
2021/07/18 02:04:52;;;;;;;11.48;10.27;;;;;;;;;;6091324;29;20044;-66
2021/07/18 02:08:08;;;;;;;12.88;9.85;;;;;;;;;;6082529;29;20186;-65
2021/07/18 02:14:45;;;;;;;12.73;9.90;;;;;;;;;;6091035;29;20603;-65
2021/07/18 02:17:53;;;;;;;10.40;8.80;;;;;;;;;;6068385;29;20071;-65
2021/07/18 02:21:00;;;;;;;13.55;9.07;;;;;;;;;;6082865;29;20048;-64
2021/07/18 02:24:03;;;;;;;12.77;10.48;;;;;;;;;;6089439;29;20104;-69
2021/07/18 02:27:07;;;;;;;16.00;11.70;;;;;;;;;;6086120;29;20056;-65
2021/07/18 02:30:12;;;;;;;15.75;13.27;;;;;;;;;;6096649;29;20048;-67
2021/07/18 02:33:14;;;;;;;16.13;12.60;;;;;;;;;;6088763;29;20072;-65
2021/07/18 02:36:17;;;;;;;15.32;12.45;;;;;;;;;;6091158;29;20183;-64
2021/07/18 02:39:22;;;;;;;14.65;12.68;;;;;;;;;;6095689;29;20055;-65
2021/07/18 02:45:53;;;;;;;16.77;11.98;;;;;;;;;;6093601;29;20052;-65
2021/07/18 02:48:55;;;;;;;18.05;12.52;;;;;;;;;;6082790;29;20049;-64
2021/07/18 02:51:57;;;;;;;14.63;12.55;;;;;;;;;;6092771;29;20067;-65
2021/07/18 02:54:59;;;;;;;17.38;14.50;;;;;;;;;;6097600;29;20048;-65
2021/07/18 02:58:03;;;;;;;17.52;15.10;;;;;;;;;;6091022;29;20048;-64
2021/07/18 03:01:05;;;;;;;16.15;14.10;;;;;;;;;;6089593;29;20063;-67
2021/07/18 03:04:10;;;;;;;17.55;14.00;;;;;;;;;;6092602;29;20051;-65
2021/07/18 03:07:13;;;;;;;17.73;13.73;;;;;;;;;;6072873;29;20183;-64
2021/07/18 03:10:16;;;;;;;15.57;13.00;;;;;;;;;;6089717;29;20060;-66
2021/07/18 03:13:20;;;;;;;18.73;13.77;;;;;;;;;;6087748;29;20501;-65
2021/07/18 03:16:25;;;;;;;19.83;12.70;;;;;;;;;;6080001;29;20131;-65
2021/07/18 03:19:30;;;;;;;15.30;13.10;;;;;;;;;;6083380;29;20188;-68
2021/07/18 03:22:35;;;;;;;14.93;12.77;;;;;;;;;;6080173;29;20135;-65
2021/07/18 03:25:40;;;;;;;17.60;13.73;;;;;;;;;;6085335;29;21147;-67
2021/07/18 03:28:43;;;;;;;17.85;15.48;;;;;;;;;;6089913;29;20115;-64
2021/07/18 03:31:45;;;;;;;;;;;;;;;;;;6083752;29;20064;-66
2021/07/18 03:34:55;;;;;;;20.20;15.27;;;;;;;;;;6091002;29;19939;-64
2021/07/18 03:37:57;;;;;;;19.02;14.63;;;;;;;;;;6083753;29;20063;-64
2021/07/18 03:41:02;;;;;;;20.17;16.08;;;;;;;;;;6082174;29;20052;-65
2021/07/18 03:44:12;;;;;;;18.50;15.45;;;;;;;;;;6091752;29;20048;-64
2021/07/18 03:50:49;;;;;;;18.63;16.00;;;;;;;;;;6075297;29;20044;-64
2021/07/18 03:53:52;;;;;;;17.83;15.88;;;;;;;;;;6091110;29;20075;-65
2021/07/18 03:57:03;;;;;;;20.65;15.57;;;;;;;;;;6088833;29;20055;-64
2021/07/18 04:00:48;;;;;;;19.58;16.35;;;;;;;;;;6097394;29;20445;-69
2021/07/18 04:04:20;;;;;;;22.70;16.33;;;;;;;;;;6082908;29;20052;-65
2021/07/18 04:15:13;;;;;;;22.30;18.15;;;;;;;;;;6022223;29;20054;-65
2021/07/18 04:22:15;;;;;;;20.67;17.17;;;;;;;;;;5968252;29;20729;-67
2021/07/18 04:25:19;;;;;;;22.77;17.58;;;;;;;;;;6038615;29;20619;-65
2021/07/18 04:28:27;;;;;;;21.00;17.35;;;;;;;;;;6089138;29;20055;-65
2021/07/18 04:31:50;;;;;;;21.00;18.25;;;;;;;;;;6068305;29;20043;-65
2021/07/18 04:35:02;;;;;;;24.92;19.73;;;;;;;;;;6087278;29;20048;-67
2021/07/18 04:38:04;;;;;;;23.20;18.58;;;;;;;;;;6083828;29;20103;-66
2021/07/18 04:41:08;;;;;;;23.63;18.77;;;;;;;;;;6083298;29;20085;-64
2021/07/18 04:48:42;;;;;;;20.42;17.90;;;;;;;;;;6081413;29;20105;-65
2021/07/18 04:51:47;;;;;;;22.10;17.88;;;;;;;;;;6074903;29;20052;-64
2021/07/18 04:54:49;;;;;;;21.05;18.27;;;;;;;;;;6089983;29;20063;-64
2021/07/18 04:57:55;;;;;;;28.07;20.17;;;;;;;;;;6085766;29;20112;-66
2021/07/18 05:00:57;;;;;;;23.23;19.33;;;;;;;;;;6081035;29;20196;-64
2021/07/18 05:03:59;;;;;;;24.50;20.42;;;;;;;;;;6086387;29;20179;-65
2021/07/18 05:07:04;;;;;;;26.17;20.38;;;;;;;;;;6082502;29;20044;-64
2021/07/18 05:10:19;;;;;;;;;;;;;;;;;;;;;
2021/07/18 05:13:32;;;;;;;25.95;21.30;;;;;;;;;;6080177;29;20139;-64
2021/07/18 05:16:37;;;;;;;23.40;20.98;;;;;;;;;;6082834;29;20444;-66
2021/07/18 05:19:39;;;;;;;26.30;19.42;;;;;;;;;;6093504;29;20204;-64
2021/07/18 05:22:42;;;;;;;24.07;18.63;;;;;;;;;;6082985;29;20954;-65
2021/07/18 05:25:48;;;;;;;25.90;19.73;;;;;;;;;;6078463;29;20484;-65
2021/07/18 05:29:04;;;;;;;25.33;20.52;;;;;;;;;;6093918;29;20044;-64
2021/07/18 05:32:07;;;;;;;26.52;21.92;;;;;;;;;;6070218;29;20495;-64
2021/07/18 05:35:10;;;;;;;23.10;20.08;;;;;;;;;;6090047;29;20555;-67
2021/07/18 05:38:16;;;;;;;;;;;;;;;;;;6091135;29;20063;-65
2021/07/18 05:41:26;;;;;;;22.90;18.42;;;;;;;;;;6085714;29;19930;-65
2021/07/18 05:44:55;;;;;;;22.13;19.77;;;;;;;;;;6095122;29;20059;-64
2021/07/18 05:47:58;;;;;;;21.67;19.38;;;;;;;;;;6073456;29;20048;-67
2021/07/18 05:55:07;;;;;;;20.10;16.85;;;;;;;;;;6084417;29;20056;-65
2021/07/18 05:58:18;;;;;;;20.55;17.33;;;;;;;;;;6089674;29;20056;-66
2021/07/18 06:01:45;;;;;;;;;;;;;;;;;;;;;
2021/07/18 06:05:19;;;;;;;;;;;;;;;;;;;;;
2021/07/18 06:08:21;;;;;;;;;;;;;;;;;;6092314;29;20710;-64
2021/07/18 06:19:05;;;;;;;17.02;13.77;;;;;;;;;;5976859;29;20522;-70
2021/07/18 06:22:38;;;;;;;16.08;13.73;;;;;;;;;;6042794;29;20052;-69
2021/07/18 06:26:17;;;;;;;;;;;;;;;;;;;;;
2021/07/18 06:29:20;;;;;;;12.13;10.43;;;;;;;;;;6062828;29;20188;-64
2021/07/18 06:32:27;;;;;;;13.90;11.40;;;;;;;;;;6082209;29;20044;-65
2021/07/18 06:38:47;;;;;;;12.02;10.65;;;;;;;;;;6052839;29;20084;-64
2021/07/18 06:42:13;;;;;;;12.48;11.10;;;;;;;;;;6085867;29;20056;-64
2021/07/18 06:48:31;;;;;;;12.88;11.38;;;;;;;;;;6084102;29;20141;-65
2021/07/18 06:51:35;;;;;;;15.90;13.98;;;;;;;;;;6085804;29;20099;-65
2021/07/18 06:54:57;;;;;;;12.02;10.52;;;;;;;;;;6094695;29;20093;-65
2021/07/18 06:58:02;;;;;;;13.37;10.70;;;;;;;;;;6075866;29;20096;-66
2021/07/18 07:01:08;;;;;;;14.32;10.93;;;;;;;;;;6084546;29;20060;-68
2021/07/18 07:04:25;;;;;;;;;;;;;;;;;;;;;
2021/07/18 07:07:31;;;;;;;12.52;9.93;;;;;;;;;;6046071;29;20108;-65
2021/07/18 07:10:34;;;;;;;11.15;9.95;;;;;;;;;;6081052;29;20130;-69
2021/07/18 07:13:37;;;;;;;13.82;11.38;;;;;;;;;;6092855;29;20401;-64
2021/07/18 07:16:39;;;;;;;15.50;13.77;;;;;;;;;;6081892;29;20056;-65
2021/07/18 07:19:40;;;;;;;16.10;14.37;;;;;;;;;;6087579;29;20472;-64
2021/07/18 07:22:47;;;;;;;17.55;15.55;;;;;;;;;;6083041;29;20165;-66
2021/07/18 07:25:54;;;;;;;16.30;14.35;;;;;;;;;;6061558;28;20080;-65
2021/07/18 07:29:06;;;;;;;16.10;12.82;;;;;;;;;;6082582;29;20047;-64
2021/07/18 07:32:25;;;;;;;16.45;12.75;;;;;;;;;;6086328;29;20048;-64
2021/07/18 07:35:40;;;;;;;15.45;12.07;;;;;;;;;;6089460;29;20175;-65
2021/07/18 07:38:44;;;;;;;17.00;13.85;;;;;;;;;;6083958;29;20052;-66
2021/07/18 07:41:47;;;;;;;16.77;14.98;;;;;;;;;;6075094;29;20070;-65
2021/07/18 07:44:55;;;;;;;15.75;12.98;;;;;;;;;;6096934;29;20619;-65
2021/07/18 07:48:36;;;;;;;11.57;10.15;;;;;;;;;;6084695;29;20044;-65
2021/07/18 07:51:41;;;;;;;9.75;8.18;;;;;;;;;;6084880;29;20060;-65
2021/07/18 07:55:02;;;;;;;10.82;8.90;;;;;;;;;;6077639;29;20047;-66
2021/07/18 07:58:14;;;;;;;14.30;12.80;;;;;;;;;;6090395;29;20056;-65
2021/07/18 08:01:29;;;;;;;13.60;12.25;;;;;;;;;;6077916;29;20044;-64
2021/07/18 08:04:58;;;;;;;9.63;8.68;;;;;;;;;;6092879;29;20139;-65
2021/07/18 08:08:12;;;;;;;12.25;10.73;;;;;;;;;;6079465;29;20044;-66
2021/07/18 08:11:19;;;;;;;16.77;14.30;;;;;;;;;;6059801;29;20044;-65
2021/07/18 08:14:28;;;;;;;16.40;14.77;;;;;;;;;;6094459;29;20044;-66
2021/07/18 08:17:31;;;;;;;12.73;11.38;;;;;;;;;;6073271;29;20071;-65
2021/07/18 08:23:53;;;;;;;16.58;13.30;;;;;;;;;;6079503;29;20047;-66
2021/07/18 08:26:57;;;;;;;11.23;9.82;;;;;;;;;;6084673;29;20052;-66
2021/07/18 08:34:32;;;;;;;15.23;13.50;;;;;;;;;;5994275;29;20058;-67
2021/07/18 08:38:07;;;;;;;13.23;11.90;;;;;;;;;;5991865;29;20269;-65
2021/07/18 08:45:11;;;;;;;;;;;;;;;;;;;;;
2021/07/18 08:51:51;;;;;;;10.68;9.60;;;;;;;;;;5997300;29;20497;-65
2021/07/18 08:55:10;;;;;;;12.20;9.20;;;;;;;;;;5995020;29;20187;-65
2021/07/18 09:13:57;;;;;;;8.10;7.15;;;;;;;;;;5889177;30;20060;-67
2021/07/18 09:17:09;;;;;;;8.95;8.15;;;;;;;;;;5892597;30;20052;-65
2021/07/18 09:20:21;;;;;;;10.73;9.57;;;;;;;;;;6050804;29;20059;-68
2021/07/18 09:31:00;;;;;;;12.57;11.38;;;;;;;;;;5990379;29;20087;-65
2021/07/18 09:34:35;;;;;;;10.88;9.77;;;;;;;;;;6087611;29;20055;-67
2021/07/18 09:37:39;;;;;;;12.80;11.45;;;;;;;;;;6071337;29;20085;-65
2021/07/18 09:40:42;;;;;;;11.57;10.32;;;;;;;;;;6072914;29;20087;-67
2021/07/18 09:44:02;;;;;;;12.70;10.63;;;;;;;;;;6090639;29;20517;-65
2021/07/18 09:47:23;;;;;;;10.90;7.65;;;;;;;;;;6068507;29;20076;-65
2021/07/18 09:50:31;;;;;;;11.27;10.15;;;;;;;;;;6081147;29;20059;-68
2021/07/18 09:53:45;;;;;;;11.75;10.15;;;;;;;;;;6086283;29;20056;-65
2021/07/18 10:00:53;;;;;;;9.60;8.68;;;;;;;;;;6082388;29;20548;-67
2021/07/18 10:16:32;;;;;;;7.60;6.18;;;;;;;;;;6063759;29;20048;-70
2021/07/18 10:39:07;;;;;;;4.18;3.50;;;;;;;;;;6040571;29;20521;-69
2021/07/18 10:42:48;;;;;;;4.43;3.85;;;;;;;;;;6036356;29;20053;-65
2021/07/18 11:05:50;;;;;;;2.28;1.75;;;;;;;;;;5994192;29;20518;-72
2021/07/18 11:09:12;;;;;;;;;;;;;;;;;;5990177;29;20112;-65
2021/07/18 11:12:24;;;;;;;2.88;2.22;;;;;;;;;;6084427;29;20018;-64
2021/07/18 11:29:13;;;;;;;5.50;2.92;;;;;;;;;;6253935;28;20498;-66
2021/07/18 11:40:43;;;;;;;7.03;3.00;;;;;;;;;;6195645;28;20082;-70
2021/07/18 11:43:48;;;;;;;4.50;3.17;;;;;;;;;;6164573;28;20185;-69
2021/07/18 11:50:16;;;;;;;3.63;2.50;;;;;;;;;;6148543;28;20052;-69
2021/07/18 11:53:47;;;;;;;3.67;2.40;;;;;;;;;;6162238;28;20066;-67
2021/07/18 12:00:21;;;;;;;2.92;2.20;;;;;;;;;;6167685;28;20070;-70
2021/07/18 12:03:25;;;;;;;2.30;2.10;;;;;;;;;;6149883;28;20066;-70
2021/07/18 12:07:05;;;;;;;;;;;;;;;;;;;;;
2021/07/18 12:14:14;;;;;;;2.38;2.08;;;;;;;;;;6106390;29;20036;-66
2021/07/18 12:17:16;;;;;;;2.28;2.10;;;;;;;;;;6098248;28;20062;-68
2021/07/18 12:20:23;;;;;;;2.75;1.70;;;;;;;;;;6175952;28;20054;-69
2021/07/18 12:23:27;;;;;;;2.50;1.63;;;;;;;;;;6187569;28;20050;-66
2021/07/18 12:26:30;;;;;;;2.55;1.58;;;;;;;;;;6176469;28;20043;-66
2021/07/18 12:29:36;;;;;;;1.45;1.35;;;;;;;;;;6184376;28;20126;-66
2021/07/18 12:32:38;;;;;;;2.17;1.80;;;;;;;;;;6178956;28;20137;-66
2021/07/18 12:35:44;;;;;;;2.88;1.65;;;;;;;;;;6176828;28;20068;-66
2021/07/18 12:38:49;;;;;;;2.33;1.60;;;;;;;;;;6178633;28;20137;-66
2021/07/18 12:41:51;;;;;;;1.73;1.58;;;;;;;;;;6169051;28;20046;-66
2021/07/18 12:44:55;;;;;;;3.60;1.98;;;;;;;;;;6165195;28;20053;-67
2021/07/18 12:48:13;;;;;;;1.92;1.67;;;;;;;;;;6157939;28;20051;-65
2021/07/18 12:51:31;;;;;;;3.55;1.75;;;;;;;;;;6174946;28;20391;-71
2021/07/18 12:54:34;;;;;;;2.40;2.03;;;;;;;;;;6165557;28;20133;-67
2021/07/18 12:57:36;;;;;;;4.47;1.95;;;;;;;;;;6151182;28;20161;-66
2021/07/18 13:00:49;;;;;;;6.50;2.30;;;;;;;;;;6165104;28;20065;-66
2021/07/18 13:04:09;;;;;;;2.63;1.88;;;;;;;;;;6158939;28;20059;-66
2021/07/18 13:07:38;;;;;;;2.88;1.70;;;;;;;;;;6150332;28;20058;-66
2021/07/18 13:10:48;;;;;;;2.33;2.00;;;;;;;;;;6154675;28;20046;-66
2021/07/18 13:26:56;;;;;;;2.75;1.63;;;;;;;;;;6106394;29;20488;-67
2021/07/18 13:30:10;;;;;;;2.05;1.85;;;;;;;;;;6087718;29;20068;-66
2021/07/18 13:33:38;;;;;;;2.17;1.83;;;;;;;;;;6107906;29;20075;-66
2021/07/18 13:36:46;;;;;;;3.22;2.00;;;;;;;;;;6104247;29;20075;-66
2021/07/18 13:39:48;;;;;;;2.95;1.70;;;;;;;;;;6122850;28;20441;-68
2021/07/18 13:42:50;;;;;;;2.45;1.92;;;;;;;;;;6158409;28;20138;-67
2021/07/18 13:45:54;;;;;;;3.78;2.00;;;;;;;;;;6140077;28;20115;-67
2021/07/18 13:48:56;;;;;;;2.40;1.90;;;;;;;;;;6162296;28;20062;-68
2021/07/18 13:55:56;;;;;;;3.08;2.00;;;;;;;;;;6087678;29;20044;-67
2021/07/18 13:59:11;;;;;;;;;;;;;;;;;;;;;
2021/07/18 14:07:23;;;;;;;3.45;2.08;;;;;;;;;;6057807;29;20542;-66
2021/07/18 14:11:10;;;;;;;;;;;;;;;;;;;;;
2021/07/18 14:14:22;;;;;;;2.65;1.90;;;;;;;;;;6005096;29;20510;-70
2021/07/18 14:18:10;;;;;;;3.05;1.83;;;;;;;;;;6009589;29;20202;-66
2021/07/18 14:25:41;;;;;;;2.80;2.40;;;;;;;;;;6020348;29;20045;-66
2021/07/18 14:32:49;;;;;;;4.55;2.08;;;;;;;;;;5958483;29;20542;-70
2021/07/18 14:36:40;;;;;;;2.08;1.85;;;;;;;;;;6020491;29;20424;-65
2021/07/18 14:40:01;;;;;;;4.22;1.85;;;;;;;;;;5926704;29;20070;-65
2021/07/18 14:51:35;;;;;;;2.55;1.60;;;;;;;;;;6010897;29;20083;-68
2021/07/18 14:54:49;;;;;;;3.00;1.50;;;;;;;;;;6053609;29;20143;-67
2021/07/18 14:58:36;;;;;;;;;;;;;;;;;;;;;
2021/07/18 15:13:00;;;;;;;3.13;1.88;;;;;;;;;;6157146;28;20050;-65
2021/07/18 15:19:38;;;;;;;1.75;1.60;;;;;;;;;;6115505;28;20692;-65
2021/07/18 15:22:45;;;;;;;2.00;1.50;;;;;;;;;;6142594;28;21198;-66
2021/07/18 15:26:29;;;;;;;1.50;1.40;;;;;;;;;;6147461;28;20066;-66
2021/07/18 15:29:32;;;;;;;2.33;1.60;;;;;;;;;;6046272;29;20136;-67
2021/07/18 15:33:26;;;;;;;1.92;1.60;;;;;;;;;;6031578;29;20541;-67
2021/07/18 15:36:51;;;;;;;2.03;1.80;;;;;;;;;;6031099;29;20139;-68
2021/07/18 15:39:53;;;;;;;2.63;1.70;;;;;;;;;;6031604;29;21952;-70
2021/07/18 15:43:03;;;;;;;4.15;2.20;;;;;;;;;;6083358;28;20050;-66
2021/07/18 15:50:14;;;;;;;3.22;1.95;;;;;;;;;;6161823;28;20043;-70
2021/07/18 15:53:20;;;;;;;2.28;1.80;;;;;;;;;;6164983;28;20053;-65
2021/07/18 15:56:22;;;;;;;3.30;2.40;;;;;;;;;;6144033;28;20077;-66
2021/07/18 15:59:24;;;;;;;3.67;2.13;;;;;;;;;;6163240;28;20507;-67
2021/07/18 16:02:41;;;;;;;;;;;;;;;;;;;;;
2021/07/18 16:10:12;;;;;;;3.00;1.80;;;;;;;;;;6152292;28;20066;-65
2021/07/18 16:13:40;;;;;;;3.53;2.10;;;;;;;;;;6165926;28;20079;-66
2021/07/18 16:16:52;;;;;;;4.53;1.98;;;;;;;;;;6128879;28;20050;-67
2021/07/18 16:19:57;;;;;;;2.83;1.90;;;;;;;;;;6165061;28;20707;-66
2021/07/18 16:23:06;;;;;;;2.80;2.40;;;;;;;;;;6152568;28;20133;-66
2021/07/18 16:26:18;;;;;;;4.25;2.40;;;;;;;;;;6157916;28;20195;-66
2021/07/18 16:29:22;;;;;;;4.50;2.28;;;;;;;;;;6162591;28;20611;-67
2021/07/18 16:32:25;;;;;;;4.10;2.47;;;;;;;;;;6145158;28;20129;-66
2021/07/18 16:35:29;;;;;;;4.32;2.15;;;;;;;;;;6159031;28;20458;-71
2021/07/18 16:38:33;;;;;;;2.33;2.10;;;;;;;;;;6162975;28;20066;-67
2021/07/18 16:41:37;;;;;;;2.97;1.95;;;;;;;;;;6157256;28;20055;-68
2021/07/18 16:44:41;;;;;;;4.32;1.92;;;;;;;;;;6170697;28;20198;-66
2021/07/18 16:47:43;;;;;;;3.47;1.92;;;;;;;;;;6159117;28;20584;-66
2021/07/18 16:50:47;;;;;;;3.33;2.00;;;;;;;;;;6163294;28;20113;-66
2021/07/18 16:53:54;;;;;;;1.75;1.55;;;;;;;;;;6157435;28;20122;-67
2021/07/18 16:56:58;;;;;;;5.40;2.20;;;;;;;;;;6145097;28;20055;-67
2021/07/18 17:03:37;;;;;;;1.77;1.60;;;;;;;;;;6159369;28;20054;-65
2021/07/18 17:06:41;;;;;;;2.50;1.80;;;;;;;;;;6152814;28;20057;-66
2021/07/18 17:09:49;;;;;;;4.50;1.70;;;;;;;;;;6172029;28;20054;-66
2021/07/18 17:12:54;;;;;;;4.72;1.70;;;;;;;;;;6164759;28;20054;-66
2021/07/18 17:15:59;;;;;;;2.45;1.45;;;;;;;;;;6162009;28;20172;-67
2021/07/18 17:19:40;;;;;;;3.33;1.75;;;;;;;;;;6162859;28;20191;-66
2021/07/18 17:22:59;;;;;;;1.95;1.60;;;;;;;;;;6146410;28;20047;-66
2021/07/18 17:29:57;;;;;;;3.60;1.88;;;;;;;;;;6047738;29;20616;-66
2021/07/18 17:32:59;;;;;;;1.50;1.20;;;;;;;;;;6097237;28;20051;-66
2021/07/18 17:36:03;;;;;;;2.42;1.50;;;;;;;;;;6149096;28;20055;-66
2021/07/18 17:47:22;;;;;;;4.35;1.80;;;;;;;;;;6080625;29;20099;-66
2021/07/18 17:50:24;;;;;;;2.40;1.40;;;;;;;;;;6090031;29;20127;-70
2021/07/18 17:53:29;;;;;;;1.90;1.58;;;;;;;;;;6127917;28;20078;-66
2021/07/18 17:56:31;;;;;;;2.55;1.50;;;;;;;;;;6163177;28;20057;-66
2021/07/18 17:59:33;;;;;;;1.70;1.40;;;;;;;;;;6169479;28;20485;-66
2021/07/18 18:02:36;;;;;;;1.95;1.17;;;;;;;;;;6140738;28;20484;-65
2021/07/18 18:05:49;;;;;;;1.95;1.60;;;;;;;;;;6156081;28;20480;-66
2021/07/18 18:08:50;;;;;;;1.57;1.47;;;;;;;;;;6168276;28;20054;-66
2021/07/18 18:11:55;;;;;;;2.57;1.20;;;;;;;;;;6162273;28;20477;-67
2021/07/18 18:14:57;;;;;;;3.60;1.20;;;;;;;;;;6167095;28;20415;-67
2021/07/18 18:18:00;;;;;;;1.65;1.30;;;;;;;;;;6156774;28;20047;-66
2021/07/18 18:21:02;;;;;;;2.40;1.50;;;;;;;;;;6158994;28;20047;-66
2021/07/18 18:24:05;;;;;;;1.87;1.23;;;;;;;;;;6160579;28;20043;-66
2021/07/18 18:31:11;;;;;;;2.80;1.40;;;;;;;;;;6027086;29;20050;-72
2021/07/18 18:34:37;;;;;;;4.32;1.40;;;;;;;;;;6004944;29;20421;-67
2021/07/18 18:37:39;;;;;;;1.10;1.00;;;;;;;;;;6036137;29;20090;-67
2021/07/18 18:40:41;;;;;;;1.50;1.08;;;;;;;;;;6116736;28;20138;-66
2021/07/18 18:43:43;;;;;;;1.67;1.20;;;;;;;;;;6145820;28;20039;-65
2021/07/18 18:46:53;;;;;;;2.33;1.40;;;;;;;;;;6137074;28;20070;-65
2021/07/18 18:49:57;;;;;;;2.45;1.50;;;;;;;;;;6134379;28;20047;-66
2021/07/18 18:52:59;;;;;;;1.55;1.35;;;;;;;;;;6136489;28;20043;-66
2021/07/18 18:59:56;;;;;;;2.08;1.30;;;;;;;;;;6084056;28;20055;-65
2021/07/18 19:03:08;;;;;;;2.38;1.35;;;;;;;;;;6123673;28;20450;-67
2021/07/18 19:10:12;;;;;;;3.40;1.50;;;;;;;;;;6119467;28;20051;-66
2021/07/18 19:13:16;;;;;;;4.90;2.00;;;;;;;;;;6141298;28;20098;-67
2021/07/18 19:16:24;;;;;;;4.38;1.42;;;;;;;;;;6135861;28;20052;-68
2021/07/18 19:19:38;;;;;;;2.42;1.40;;;;;;;;;;6110902;28;20054;-66
2021/07/18 19:22:41;;;;;;;2.72;1.40;;;;;;;;;;6119489;28;20051;-67
2021/07/18 19:25:43;;;;;;;1.33;1.23;;;;;;;;;;6140396;28;20487;-66
2021/07/18 19:28:45;;;;;;;2.13;1.70;;;;;;;;;;6144256;28;20051;-66
2021/07/18 19:31:48;;;;;;;11.38;9.65;;;;;;;;;;6115509;28;20063;-65
2021/07/18 19:34:50;;;;;;;8.77;6.57;;;;;;;;;;6162997;28;20050;-65
2021/07/18 19:38:03;;;;;;;3.85;1.65;;;;;;;;;;6145826;28;20038;-66
2021/07/18 19:41:08;;;;;;;2.10;1.35;;;;;;;;;;6157341;28;20562;-70
2021/07/18 19:44:10;;;;;;;7.47;1.90;;;;;;;;;;6165436;28;20066;-65
2021/07/18 19:47:12;;;;;;;2.33;1.63;;;;;;;;;;6159685;28;20042;-65
2021/07/18 19:50:15;;;;;;;3.10;1.67;;;;;;;;;;6164827;28;20464;-67
2021/07/18 19:53:21;;;;;;;2.85;1.80;;;;;;;;;;6162655;28;20047;-66
2021/07/18 19:56:23;;;;;;;3.85;1.73;;;;;;;;;;6165368;28;20058;-66
2021/07/18 19:59:25;;;;;;;3.58;1.70;;;;;;;;;;6171227;28;20061;-65
2021/07/18 20:02:27;;;;;;;4.05;2.05;;;;;;;;;;6159566;28;20888;-65
2021/07/18 20:05:29;;;;;;;5.22;1.90;;;;;;;;;;6156160;28;20071;-66
2021/07/18 20:08:35;;;;;;;3.67;1.85;;;;;;;;;;6173402;28;20062;-66
2021/07/18 20:11:37;;;;;;;6.15;3.00;;;;;;;;;;6165400;28;20070;-65
2021/07/18 20:14:38;;;;;;;4.77;2.60;;;;;;;;;;6160731;28;20069;-65
2021/07/18 20:17:49;;;;;;;3.05;2.00;;;;;;;;;;6155466;28;21067;-66
2021/07/18 20:20:51;;;;;;;3.90;1.98;;;;;;;;;;6164801;28;20568;-67
2021/07/18 20:23:56;;;;;;;3.05;1.85;;;;;;;;;;6167190;28;20050;-67
2021/07/18 20:26:58;;;;;;;2.15;1.80;;;;;;;;;;6160428;28;20666;-70
2021/07/18 20:30:01;;;;;;;4.63;2.05;;;;;;;;;;6167066;28;20043;-66
2021/07/18 20:33:03;;;;;;;3.55;1.90;;;;;;;;;;6160826;28;20074;-68
2021/07/18 20:36:05;;;;;;;3.03;2.40;;;;;;;;;;6161913;28;20078;-67
2021/07/18 20:39:10;;;;;;;3.47;2.55;;;;;;;;;;6170102;28;20500;-68
2021/07/18 20:42:12;;;;;;;5.85;3.08;;;;;;;;;;6165695;28;20046;-70
2021/07/18 20:45:14;;;;;;;5.97;3.37;;;;;;;;;;6166296;28;20047;-69
2021/07/18 20:48:16;;;;;;;8.77;2.90;;;;;;;;;;6160210;28;20066;-70
2021/07/18 20:51:21;;;;;;;8.07;3.60;;;;;;;;;;6153256;28;20311;-66
2021/07/18 20:54:24;;;;;;;10.35;3.80;;;;;;;;;;6170575;28;20050;-65
2021/07/18 20:57:26;;;;;;;11.27;5.38;;;;;;;;;;6164004;28;20054;-65
2021/07/18 21:00:28;;;;;;;5.15;3.92;;;;;;;;;;6164057;28;20207;-66
2021/07/18 21:03:36;;;;;;;6.43;3.47;;;;;;;;;;6150821;28;20050;-65
2021/07/18 21:06:37;;;;;;;5.40;3.85;;;;;;;;;;6157460;28;20051;-66
2021/07/18 21:09:41;;;;;;;7.72;4.97;;;;;;;;;;6169164;28;20047;-69
2021/07/18 21:12:43;;;;;;;6.63;3.55;;;;;;;;;;6145845;28;20070;-66
2021/07/18 21:15:45;;;;;;;7.60;3.90;;;;;;;;;;6154295;28;20049;-68
2021/07/18 21:18:46;;;;;;;19.42;5.47;;;;;;;;;;6164599;28;20055;-65
2021/07/18 21:21:48;;;;;;;27.35;6.30;;;;;;;;;;6155644;28;20062;-67
2021/07/18 21:24:51;;;;;;;16.17;5.22;;;;;;;;;;6170598;28;20533;-65
2021/07/18 21:31:16;;;;;;;5.72;3.40;;;;;;;;;;6160730;28;20054;-66
2021/07/18 21:34:18;;;;;;;7.17;3.97;;;;;;;;;;6149590;28;20522;-70
2021/07/18 21:37:20;;;;;;;11.63;4.25;;;;;;;;;;6160454;28;20474;-65
2021/07/18 21:40:26;;;;;;;6.50;3.58;;;;;;;;;;6163062;28;20133;-67
2021/07/18 21:43:37;;;;;;;5.25;3.35;;;;;;;;;;6166912;28;20073;-67
2021/07/18 21:53:54;;;;;;;14.38;4.03;;;;;;;;;;6159428;28;20038;-67
2021/07/18 21:56:59;;;;;;;7.88;5.15;;;;;;;;;;6157473;28;20177;-67
2021/07/18 22:00:01;;;;;;;4.00;2.85;;;;;;;;;;6164641;28;20055;-65
2021/07/18 22:03:24;;;;;;;3.72;2.30;;;;;;;;;;6167473;28;20046;-65
2021/07/18 22:10:17;;;;;;;3.35;1.63;;;;;;;;;;6150805;28;20051;-65
2021/07/18 22:13:20;;;;;;;3.72;1.80;;;;;;;;;;6162717;28;20231;-65
2021/07/18 22:16:23;;;;;;;3.80;1.70;;;;;;;;;;6145480;28;20082;-67
2021/07/18 22:19:59;;;;;;;3.63;1.90;;;;;;;;;;6156028;28;20538;-67
2021/07/18 22:23:09;;;;;;;4.00;1.98;;;;;;;;;;6156998;28;20043;-65
2021/07/18 22:26:14;;;;;;;4.40;2.40;;;;;;;;;;6158388;28;20055;-66
2021/07/18 22:29:17;;;;;;;10.13;2.85;;;;;;;;;;6167023;28;20051;-65
2021/07/18 22:32:30;;;;;;;5.13;2.65;;;;;;;;;;6124546;28;20055;-65
2021/07/18 22:35:33;;;;;;;6.35;3.45;;;;;;;;;;6124861;28;20447;-68
2021/07/18 22:38:35;;;;;;;;;;;;;;;;;;6134111;28;20142;-65
2021/07/18 22:41:52;;;;;;;4.00;2.92;;;;;;;;;;6127606;28;20683;-65
2021/07/18 22:44:55;;;;;;;6.57;3.55;;;;;;;;;;6132869;28;20054;-65
2021/07/18 22:47:57;;;;;;;6.80;3.70;;;;;;;;;;6116992;28;20078;-65
2021/07/18 22:51:03;;;;;;;7.20;3.97;;;;;;;;;;6125265;28;20058;-65
2021/07/18 22:57:22;;;;;;;5.88;4.43;;;;;;;;;;6082204;28;20507;-66
2021/07/18 23:00:48;;;;;;;7.20;4.63;;;;;;;;;;6116116;28;20748;-68
2021/07/18 23:03:56;;;;;;;7.07;3.92;;;;;;;;;;6130058;28;20047;-65
2021/07/18 23:07:02;;;;;;;5.20;3.80;;;;;;;;;;6128843;28;20055;-66
2021/07/18 23:10:04;;;;;;;7.93;5.10;;;;;;;;;;6125978;28;20049;-68
2021/07/18 23:13:10;;;;;;;6.10;4.70;;;;;;;;;;6123640;28;20050;-65
2021/07/18 23:16:15;;;;;;;5.38;4.40;;;;;;;;;;6120630;28;20059;-67
2021/07/18 23:19:20;;;;;;;5.28;4.40;;;;;;;;;;6129948;28;20047;-66
2021/07/18 23:22:22;;;;;;;5.28;4.63;;;;;;;;;;6116479;28;20530;-69
2021/07/18 23:25:44;;;;;;;5.78;4.20;;;;;;;;;;6126989;28;20065;-67
2021/07/18 23:28:46;;;;;;;6.32;4.78;;;;;;;;;;6120015;28;20055;-68
2021/07/18 23:31:52;;;;;;;8.48;4.90;;;;;;;;;;6127498;28;20051;-66
2021/07/18 23:34:56;;;;;;;8.20;4.50;;;;;;;;;;6134015;28;20059;-65
2021/07/18 23:37:58;;;;;;;7.63;4.60;;;;;;;;;;6115185;29;20047;-65
2021/07/18 23:41:21;;;;;;;8.30;4.90;;;;;;;;;;6136342;28;20059;-67
2021/07/18 23:44:24;;;;;;;8.40;4.70;;;;;;;;;;6139973;28;20084;-65